»·PEaware :: UAL205 KLAX-KPHX

UAL205 :: KLAX-KPHX

FLIGHT INFORMATION

Flight Status: Arrived
Operator:
United Airlines
More flights by this operator :: More flights under this callsign
Pilot: David T. (24031)
Aircraft: BOEING 777-200
(B772)
More flights by this aircraft type
Origin: KLAX Los Angeles Intl
United States
Destination: KPHX Phoenix Sky Harbor Intl
United States
More flights between these airports :: More routes between these airports
Route: +DOTSS2 CNERY BLH HYDRR1
File this flight plan on PilotEdge
Remarks:
Altitude:
(Current/Filed)
33,000ft
Speed:
(Current/Filed)
450kts
Departed: 24-Mar-19 01:26 PM
Arrived: 24-Mar-19 02:26 PM
Distance/Time
Traveled:
1nm/1:00
Distance/Time
To Go:
Arrived

Flight Plot

Page will automatically refresh every two minutes.


Map Options




Map Legend


Flown Route
Filed Route
Departure Airport
Arrival Airport
Navaid (VOR, NDB)
Fix

Horizontal Profiles

Position Reports

Time Latitude Longitude Heading Altitude Ground
Speed
24-Mar-19 13:07 33.940140 -118.401151 296 139ft 0kts
24-Mar-19 13:08 33.940141 -118.401153 296 139ft 0kts
24-Mar-19 13:09 33.940142 -118.401155 296 139ft 0kts
24-Mar-19 13:10 33.940143 -118.401157 296 139ft 0kts
24-Mar-19 13:11 33.940144 -118.401159 296 139ft 0kts
24-Mar-19 13:12 33.940145 -118.401161 296 139ft 0kts
24-Mar-19 13:13 33.940084 -118.401018 296 139ft 2kts
24-Mar-19 13:14 33.939956 -118.400282 252 139ft 1kts
24-Mar-19 13:15 33.940030 -118.400004 252 139ft 0kts
24-Mar-19 13:16 33.940029 -118.400006 252 139ft 0kts
24-Mar-19 13:17 33.939937 -118.400150 220 139ft 0kts
24-Mar-19 13:18 33.939839 -118.398373 78 139ft 3kts
24-Mar-19 13:19 33.939759 -118.395248 157 139ft 13kts
24-Mar-19 13:20 33.939738 -118.391002 83 139ft 25kts
24-Mar-19 13:21 33.940403 -118.384399 82 139ft 14kts
24-Mar-19 13:22 33.940741 -118.380933 100 139ft 0kts
24-Mar-19 13:23 33.940740 -118.380931 100 139ft 0kts
24-Mar-19 13:24 33.939786 -118.380776 261 139ft 11kts
24-Mar-19 13:25 33.935462 -118.423083 262 1381ft 182kts
24-Mar-19 13:26 33.920005 -118.477908 235 3172ft 190kts
24-Mar-19 13:27 33.879037 -118.535916 230 4079ft 262kts
24-Mar-19 13:28 33.806856 -118.553777 168 7470ft 298kts
24-Mar-19 13:29 33.725753 -118.528158 168 8495ft 306kts
24-Mar-19 13:30 33.673121 -118.444559 108 11379ft 360kts
24-Mar-19 13:31 33.648673 -118.317287 95 13399ft 416kts
24-Mar-19 13:32 33.643863 -118.175166 89 16123ft 438kts
24-Mar-19 13:33 33.644849 -118.026102 90 18598ft 455kts
24-Mar-19 13:34 33.644354 -117.871046 90 20786ft 469kts
24-Mar-19 13:35 33.624096 -117.715117 105 22742ft 484kts
24-Mar-19 13:36 33.586229 -117.559822 107 25497ft 482kts
24-Mar-19 13:37 33.547637 -117.404146 107 28211ft 493kts
24-Mar-19 13:38 33.511233 -117.243941 98 30696ft 506kts
24-Mar-19 13:39 33.504438 -117.157727 93 32355ft 499kts
24-Mar-19 13:40 33.501228 -116.991181 91 33054ft 499kts
24-Mar-19 13:41 33.498595 -116.824049 91 33095ft 505kts
24-Mar-19 13:42 33.496523 -116.653361 91 33188ft 518kts
24-Mar-19 13:43 33.493211 -116.479481 91 33234ft 524kts
24-Mar-19 13:44 33.490694 -116.304757 91 33253ft 526kts
24-Mar-19 13:45 33.487710 -116.129272 91 33253ft 525kts
24-Mar-19 13:46 33.505924 -115.957482 69 33224ft 519kts
24-Mar-19 13:47 33.556373 -115.795548 70 33223ft 520kts
24-Mar-19 13:48 33.602998 -115.633367 69 33245ft 521kts
24-Mar-19 13:49 33.624986 -115.462024 94 33221ft 521kts
24-Mar-19 13:50 33.611863 -115.288970 95 33210ft 521kts
24-Mar-19 13:51 33.606020 -115.119315 91 33037ft 492kts
24-Mar-19 13:52 33.601880 -114.955802 92 30833ft 498kts
24-Mar-19 13:53 33.596920 -114.790516 92 29435ft 478kts
24-Mar-19 13:54 33.572925 -114.638984 104 28725ft 453kts
24-Mar-19 13:55 33.543796 -114.493893 104 27558ft 443kts
24-Mar-19 13:56 33.516318 -114.351048 104 26487ft 433kts
24-Mar-19 13:57 33.488693 -114.211976 104 25334ft 426kts
24-Mar-19 13:58 33.461293 -114.074593 104 24777ft 419kts
24-Mar-19 13:59 33.432523 -113.931329 104 24828ft 467kts
24-Mar-19 14:00 33.402197 -113.779404 104 23845ft 466kts
24-Mar-19 14:01 33.372044 -113.630700 104 21894ft 452kts
24-Mar-19 14:02 33.342548 -113.486690 104 20045ft 440kts
24-Mar-19 14:03 33.317362 -113.345285 100 18161ft 430kts
24-Mar-19 14:04 33.293652 -113.207674 99 16528ft 414kts
24-Mar-19 14:05 33.275991 -113.075607 92 16543ft 396kts
24-Mar-19 14:06 33.277527 -112.944473 85 16544ft 395kts
24-Mar-19 14:07 33.280838 -112.813118 84 16426ft 393kts
24-Mar-19 14:08 33.293097 -112.686766 79 15090ft 373kts
24-Mar-19 14:09 33.304149 -112.572064 79 13912ft 328kts
24-Mar-19 14:10 33.313830 -112.465630 79 12684ft 310kts
24-Mar-19 14:11 33.323033 -112.364265 80 11572ft 305kts
24-Mar-19 14:12 33.332029 -112.267322 80 10643ft 271kts
24-Mar-19 14:13 33.339615 -112.182566 80 9931ft 241kts
24-Mar-19 14:14 33.346686 -112.103356 81 9098ft 236kts
24-Mar-19 14:15 33.347075 -112.024799 89 8148ft 234kts
24-Mar-19 14:16 33.345789 -111.947369 90 7146ft 231kts
24-Mar-19 14:17 33.345521 -111.871125 88 6178ft 219kts
24-Mar-19 14:18 33.345466 -111.799054 88 5321ft 222kts
24-Mar-19 14:19 33.356327 -111.728582 40 4993ft 219kts
24-Mar-19 14:20 33.413877 -111.730980 340 4991ft 213kts
24-Mar-19 14:21 33.430719 -111.793476 265 4880ft 234kts
24-Mar-19 14:22 33.428752 -111.869030 270 3966ft 195kts
24-Mar-19 14:23 33.428812 -111.929902 269 2988ft 170kts
24-Mar-19 14:24 33.428729 -111.984507 271 1486ft 155kts
24-Mar-19 14:25 33.428812 -112.018232 270 1148ft 24kts
24-Mar-19 14:26 33.429542 -112.021844 351 1148ft 3kts
24-Mar-19 14:28 33.935964 -118.418803 82 139ft 0kts
24-Mar-19 14:29 33.935964 -118.418803 82 139ft 0kts
24-Mar-19 14:30 33.935964 -118.418803 82 139ft 0kts
24-Mar-19 14:31 33.935964 -118.418803 82 139ft 0kts
24-Mar-19 14:32 33.935964 -118.418803 82 139ft 0kts
24-Mar-19 14:33 33.935964 -118.418803 82 139ft 0kts
24-Mar-19 14:34 33.935964 -118.418803 82 139ft 0kts
24-Mar-19 14:35 33.935964 -118.418803 82 139ft 0kts
24-Mar-19 14:36 33.935964 -118.418803 82 139ft 0kts
24-Mar-19 14:37 33.935964 -118.418803 82 139ft 0kts
24-Mar-19 14:38 33.935964 -118.418803 82 139ft 0kts
24-Mar-19 14:39 33.935964 -118.418803 82 139ft 0kts
24-Mar-19 14:40 33.935964 -118.418803 82 139ft 0kts

Navigation Log

Ident Type
Flight plan parsing failed, navigation log unavailable